createdAt,value
2023-04-23T00:00:58.661Z,100083.73
2023-04-23T00:03:27.413Z,100084.45
2023-04-23T00:05:56.745Z,100084.68
2023-04-23T00:08:25.990Z,100089.59
2023-04-23T00:10:54.846Z,100088.73
2023-04-23T00:13:24.440Z,100086.61
2023-04-23T00:15:53.128Z,100084.75
2023-04-23T00:18:22.116Z,100088.80
2023-04-23T00:20:50.186Z,100091.41
2023-04-23T00:23:18.815Z,100088.82
2023-04-23T00:25:46.972Z,100089.10
2023-04-23T00:28:16.421Z,100088.68
2023-04-23T00:30:44.939Z,100091.32
2023-04-23T00:33:13.105Z,100093.75
2023-04-23T00:35:41.179Z,100096.89
2023-04-23T00:38:09.442Z,100097.67
2023-04-23T00:40:37.733Z,100093.34
2023-04-23T00:43:07.391Z,100095.07
2023-04-23T00:45:35.700Z,100096.60
2023-04-23T00:48:04.123Z,100096.43
2023-04-23T00:50:32.392Z,100096.19
2023-04-23T00:53:00.548Z,100095.29
2023-04-23T00:55:29.430Z,100098.80
2023-04-23T00:57:57.625Z,100097.03
2023-04-23T01:00:26.320Z,100099.83
2023-04-23T01:02:54.925Z,100103.25
2023-04-23T01:05:23.165Z,100100.73
2023-04-23T01:07:51.533Z,100099.79
2023-04-23T01:10:20.009Z,100102.95
2023-04-23T01:12:48.422Z,100103.64
2023-04-23T01:15:16.888Z,100098.86
2023-04-23T01:17:45.345Z,100100.18
2023-04-23T01:20:13.937Z,100100.06
2023-04-23T01:22:42.430Z,100103.61
2023-04-23T01:25:10.650Z,100104.45
2023-04-23T01:27:39.612Z,100103.44
2023-04-23T01:30:08.896Z,100104.34
2023-04-23T01:32:38.103Z,100103.78
2023-04-23T01:35:08.050Z,100104.69
2023-04-23T01:37:36.684Z,100107.20
2023-04-23T01:40:06.183Z,100103.09
2023-04-23T01:42:34.364Z,100103.40
2023-04-23T01:45:03.150Z,100106.38
2023-04-23T01:47:31.643Z,100108.40
2023-04-23T01:50:00.011Z,100113.84
2023-04-23T01:52:28.076Z,100112.28
2023-04-23T01:54:56.248Z,100116.63
2023-04-23T01:57:26.712Z,100120.96
2023-04-23T01:59:58.327Z,100116.24
2023-04-23T02:02:26.478Z,100119.30
2023-04-23T02:04:55.094Z,100120.35
2023-04-23T02:07:23.155Z,100124.52
2023-04-23T02:09:51.922Z,100123.45
2023-04-23T02:12:20.734Z,100127.81
2023-04-23T02:14:49.012Z,100125.18
2023-04-23T02:17:17.144Z,100125.35
2023-04-23T02:19:45.566Z,100125.77
2023-04-23T02:22:13.736Z,100128.10
2023-04-23T02:24:42.562Z,100125.73
2023-04-23T02:27:11.012Z,100126.20
2023-04-23T02:29:39.231Z,100125.89
2023-04-23T02:32:07.336Z,100127.96
2023-04-23T02:34:36.045Z,100124.61
2023-04-23T02:37:05.341Z,100129.33
2023-04-23T02:39:34.541Z,100128.62
2023-04-23T02:42:02.919Z,100131.91
2023-04-23T02:44:31.672Z,100132.05
2023-04-23T02:47:00.456Z,100134.17
2023-04-23T02:49:29.012Z,100134.14
2023-04-23T02:51:57.024Z,100137.35
2023-04-23T02:54:25.630Z,100138.46
2023-04-23T02:56:53.802Z,100137.33
2023-04-23T02:59:21.871Z,100136.02
2023-04-23T03:01:50.108Z,100135.69
2023-04-23T03:04:18.545Z,100134.04
2023-04-23T03:06:46.801Z,100137.13
2023-04-23T03:09:16.822Z,100135.78
2023-04-23T03:11:45.196Z,100142.09
2023-04-23T03:14:14.306Z,100142.55
2023-04-23T03:16:42.674Z,100141.15
2023-04-23T03:19:11.149Z,100145.59
2023-04-23T03:21:39.323Z,100150.66
2023-04-23T03:24:12.616Z,100152.91
2023-04-23T03:26:41.300Z,100156.05
2023-04-23T03:29:10.821Z,100158.81
2023-04-23T03:31:39.392Z,100162.04
2023-04-23T03:34:08.904Z,100160.58
2023-04-23T03:36:37.500Z,100166.36
2023-04-23T03:39:07.271Z,100166.86
2023-04-23T03:41:46.219Z,100168.02
2023-04-23T03:44:16.135Z,100167.20
2023-04-23T03:46:46.402Z,100169.74
2023-04-23T03:49:16.885Z,100173.02
2023-04-23T03:51:45.672Z,100177.02
2023-04-23T03:54:14.057Z,100177.39
2023-04-23T03:56:58.609Z,100180.70
2023-04-23T03:59:32.414Z,100186.21
2023-04-23T04:02:04.393Z,100188.83
2023-04-23T04:04:33.746Z,100197.25
2023-04-23T04:07:02.177Z,100198.18
2023-04-23T04:09:30.421Z,100199.26
2023-04-23T04:12:04.374Z,100199.77
2023-04-23T04:14:32.718Z,100201.15
2023-04-23T04:17:00.892Z,100200.90
2023-04-23T04:19:29.607Z,100203.14
2023-04-23T04:21:57.762Z,100204.81
2023-04-23T04:24:26.375Z,100206.52
2023-04-23T04:26:54.720Z,100213.05
2023-04-23T04:29:24.223Z,100214.38
2023-04-23T04:31:55.722Z,100216.77
2023-04-23T04:34:23.970Z,100216.58
2023-04-23T04:36:53.980Z,100217.64
2023-04-23T04:39:22.051Z,100215.59
2023-04-23T04:41:50.204Z,100220.78
2023-04-23T04:44:18.438Z,100227.29
2023-04-23T04:46:48.210Z,100234.06
2023-04-23T04:49:19.600Z,100221.84
2023-04-23T04:51:48.272Z,100227.41
2023-04-23T04:54:16.384Z,100229.42
2023-04-23T04:56:44.697Z,100232.67
2023-04-23T04:59:12.843Z,100230.56
2023-04-23T05:01:41.444Z,100232.24
2023-04-23T05:04:09.708Z,100233.25
2023-04-23T05:06:38.066Z,100232.70
2023-04-23T05:09:06.349Z,100235.23
2023-04-23T05:11:35.977Z,100238.36
2023-04-23T05:14:04.774Z,100241.56
2023-04-23T05:16:33.583Z,100243.93
2023-04-23T05:19:01.724Z,100244.45
2023-04-23T05:21:30.201Z,100246.41
2023-04-23T05:23:58.381Z,100247.70
2023-04-23T05:26:26.703Z,100248.70
2023-04-23T05:28:55.559Z,100251.30
2023-04-23T05:31:23.644Z,100252.80
2023-04-23T05:33:53.138Z,100257.67
2023-04-23T05:36:22.020Z,100249.96
2023-04-23T05:38:50.081Z,100254.29
2023-04-23T05:41:18.284Z,100253.96
2023-04-23T05:43:46.275Z,100258.64
2023-04-23T05:46:14.402Z,100259.52
2023-04-23T05:48:42.666Z,100258.26
2023-04-23T05:51:11.245Z,100256.91
2023-04-23T05:53:39.618Z,100262.40
2023-04-23T05:56:07.794Z,100264.69
2023-04-23T05:58:38.932Z,100259.19
2023-04-23T06:01:07.209Z,100265.89
2023-04-23T06:03:37.149Z,100272.90
2023-04-23T06:06:05.710Z,100270.32
2023-04-23T06:08:33.861Z,100276.34
2023-04-23T06:11:02.259Z,100274.52
2023-04-23T06:13:31.355Z,100276.92
2023-04-23T06:15:59.769Z,100281.55
2023-04-23T06:18:28.435Z,100276.27
2023-04-23T06:20:57.426Z,100275.89
2023-04-23T06:23:25.888Z,100281.38
2023-04-23T06:25:53.967Z,100289.02
2023-04-23T06:28:22.454Z,100289.73
2023-04-23T06:31:16.864Z,100287.88
2023-04-23T06:33:45.089Z,100284.23
2023-04-23T06:36:14.922Z,100291.23
2023-04-23T06:38:44.749Z,100290.98
2023-04-23T06:41:15.484Z,100290.62
2023-04-23T06:43:43.674Z,100292.48
2023-04-23T06:46:37.695Z,100290.55
2023-04-23T06:49:05.952Z,100293.11
2023-04-23T06:51:34.676Z,100295.05
2023-04-23T06:54:02.906Z,100298.44
2023-04-23T06:56:31.229Z,100301.89
2023-04-23T06:58:59.408Z,100300.42
2023-04-23T07:01:27.891Z,100303.91
2023-04-23T07:03:55.967Z,100301.25
2023-04-23T07:06:24.349Z,100303.50
2023-04-23T07:08:52.724Z,100303.49
2023-04-23T07:11:20.817Z,100306.14
2023-04-23T07:13:50.014Z,100306.53
2023-04-23T07:16:21.121Z,100307.70
2023-04-23T07:18:50.441Z,100308.26
2023-04-23T07:21:18.618Z,100306.85
2023-04-23T07:23:46.646Z,100305.94
2023-04-23T07:26:14.866Z,100308.95
2023-04-23T07:28:43.038Z,100309.45
2023-04-23T07:31:11.328Z,100311.19
2023-04-23T07:33:39.387Z,100317.36
2023-04-23T07:36:07.570Z,100318.27
2023-04-23T07:38:35.802Z,100317.94
2023-04-23T07:41:04.113Z,100318.99
2023-04-23T07:43:32.294Z,100318.82
2023-04-23T07:46:00.604Z,100320.22
2023-04-23T07:48:29.557Z,100323.50
2023-04-23T07:50:57.694Z,100321.03
2023-04-23T07:53:26.427Z,100319.08
2023-04-23T07:55:56.687Z,100320.34
2023-04-23T07:58:25.122Z,100323.23
2023-04-23T08:00:53.293Z,100319.39
2023-04-23T08:03:22.352Z,100323.08
2023-04-23T08:05:51.209Z,100318.54
2023-04-23T08:08:19.454Z,100323.70
2023-04-23T08:10:47.628Z,100315.05
2023-04-23T08:13:15.874Z,100314.88
2023-04-23T08:15:44.020Z,100315.21
2023-04-23T08:18:12.465Z,100317.51
2023-04-23T08:20:40.624Z,100316.52
2023-04-23T08:23:08.797Z,100313.70
2023-04-23T08:25:37.072Z,100315.64
2023-04-23T08:28:05.362Z,100315.91
2023-04-23T08:30:33.536Z,100315.26
2023-04-23T08:33:01.688Z,100314.17
2023-04-23T08:35:30.053Z,100311.18
2023-04-23T08:37:58.236Z,100311.91
2023-04-23T08:40:26.728Z,100306.66
2023-04-23T08:43:02.517Z,100301.95
2023-04-23T08:45:31.049Z,100302.54
2023-04-23T08:48:02.209Z,100302.10
2023-04-23T08:50:31.716Z,100302.52
2023-04-23T08:52:59.995Z,100299.09
2023-04-23T08:55:28.258Z,100300.11
2023-04-23T08:57:58.323Z,100298.48
2023-04-23T09:00:26.551Z,100295.73
2023-04-23T09:02:54.971Z,100295.25
2023-04-23T09:05:23.192Z,100292.98
2023-04-23T09:07:51.268Z,100292.18
2023-04-23T09:10:19.343Z,100290.16
2023-04-23T09:12:48.299Z,100287.51
2023-04-23T09:15:16.814Z,100285.89
2023-04-23T09:17:46.507Z,100288.98
2023-04-23T09:20:15.065Z,100285.13
2023-04-23T09:22:47.127Z,100281.38
2023-04-23T09:25:16.857Z,100285.13
2023-04-23T09:27:45.189Z,100280.77
2023-04-23T09:30:13.669Z,100282.14
2023-04-23T09:32:42.534Z,100280.09
2023-04-23T09:35:11.247Z,100279.83
2023-04-23T09:37:41.884Z,100274.02
2023-04-23T09:40:10.662Z,100276.52
2023-04-23T09:42:39.675Z,100275.09
2023-04-23T09:45:08.345Z,100270.15
2023-04-23T09:47:39.917Z,100269.66
2023-04-23T09:50:10.740Z,100272.83
2023-04-23T09:52:38.994Z,100269.95
2023-04-23T09:55:07.400Z,100266.38
2023-04-23T09:57:41.850Z,100264.59
2023-04-23T10:02:45.986Z,100268.14
2023-04-23T10:05:24.889Z,100275.14
2023-04-23T10:07:58.064Z,100270.42
2023-04-23T10:10:26.118Z,100268.20
2023-04-23T10:12:55.883Z,100266.50
2023-04-23T10:15:25.852Z,100268.73
2023-04-23T10:17:54.585Z,100265.08
2023-04-23T10:20:23.108Z,100265.63
2023-04-23T10:22:51.168Z,100266.55
2023-04-23T10:25:19.305Z,100270.02
2023-04-23T10:27:53.768Z,100266.61
2023-04-23T10:30:23.220Z,100261.14
2023-04-23T10:32:51.844Z,100259.40
2023-04-23T10:35:20.213Z,100258.11
2023-04-23T10:37:48.401Z,100259.95
2023-04-23T10:40:19.149Z,100255.40
2023-04-23T10:42:47.631Z,100255.95
2023-04-23T10:47:50.128Z,100252.20
2023-04-23T10:50:22.856Z,100256.84
2023-04-23T10:52:53.737Z,100260.81
2023-04-23T10:55:22.690Z,100257.61
2023-04-23T10:58:06.771Z,100262.73
2023-04-23T11:00:40.930Z,100254.89
2023-04-23T11:03:27.584Z,100254.67
2023-04-23T11:05:56.080Z,100257.48
2023-04-23T11:08:24.554Z,100253.95
2023-04-23T11:10:58.667Z,100255.77
2023-04-23T11:13:27.152Z,100249.86
2023-04-23T11:16:18.614Z,100255.88
2023-04-23T11:18:56.804Z,100249.79
2023-04-23T11:21:45.020Z,100250.77
2023-04-23T11:24:12.957Z,100252.73
2023-04-23T11:26:41.587Z,100253.79
2023-04-23T11:29:09.742Z,100255.81
2023-04-23T11:31:40.793Z,100250.35
2023-04-23T11:34:13.100Z,100245.29
2023-04-23T11:36:41.033Z,100250.15
2023-04-23T11:39:10.605Z,100250.11
2023-04-23T11:41:38.651Z,100246.34
2023-04-23T11:44:06.794Z,100249.25
2023-04-23T11:46:34.832Z,100249.25
2023-04-23T11:49:02.918Z,100244.33
2023-04-23T11:51:31.408Z,100242.73
2023-04-23T11:54:03.088Z,100235.37
2023-04-23T11:56:31.624Z,100231.80
2023-04-23T11:59:01.349Z,100234.25
2023-04-23T12:01:42.692Z,100232.52
2023-04-23T12:04:14.871Z,100231.27
2023-04-23T12:06:43.992Z,100234.85
2023-04-23T12:09:13.093Z,100235.17
2023-04-23T12:11:41.649Z,100231.90
2023-04-23T12:14:10.003Z,100231.19
2023-04-23T12:16:41.907Z,100227.38
2023-04-23T12:19:10.605Z,100226.17
2023-04-23T12:21:54.756Z,100224.17
2023-04-23T12:24:23.762Z,100230.84
2023-04-23T12:26:54.559Z,100227.41
2023-04-23T12:29:23.111Z,100228.77
2023-04-23T12:31:52.467Z,100224.60
2023-04-23T12:34:21.319Z,100222.61
2023-04-23T12:36:50.140Z,100222.41
2023-04-23T12:39:29.522Z,100214.39
2023-04-23T12:42:00.254Z,100216.42
2023-04-23T12:44:28.698Z,100212.73
2023-04-23T12:46:58.012Z,100214.59
2023-04-23T12:49:27.300Z,100210.59
2023-04-23T12:51:57.798Z,100209.02
2023-04-23T12:54:26.700Z,100208.37
2023-04-23T12:56:54.774Z,100208.80
2023-04-23T12:59:23.054Z,100210.58
2023-04-23T13:01:51.484Z,100213.61
2023-04-23T13:04:19.496Z,100208.23
2023-04-23T13:06:48.090Z,100208.52
2023-04-23T13:09:16.373Z,100208.51
2023-04-23T13:11:44.392Z,100205.84
2023-04-23T13:14:12.305Z,100200.64
2023-04-23T13:16:40.408Z,100206.16
2023-04-23T13:19:08.449Z,100200.91
2023-04-23T13:21:36.408Z,100199.39
2023-04-23T13:24:04.628Z,100195.95
2023-04-23T13:26:32.995Z,100198.34
2023-04-23T13:29:01.366Z,100198.45
2023-04-23T13:31:31.603Z,100198.83
2023-04-23T13:34:00.061Z,100197.96
2023-04-23T13:36:28.042Z,100197.24
2023-04-23T13:38:56.301Z,100192.94
2023-04-23T13:41:24.255Z,100197.98
2023-04-23T13:43:52.925Z,100198.63
2023-04-23T13:46:20.906Z,100201.61
2023-04-23T13:48:48.996Z,100204.25
2023-04-23T13:51:33.348Z,100202.02
2023-04-23T13:54:03.259Z,100205.11
2023-04-23T13:56:31.661Z,100208.23
2023-04-23T13:59:17.596Z,100208.33
2023-04-23T14:01:49.827Z,100208.38
2023-04-23T14:04:18.773Z,100205.60
2023-04-23T14:06:46.952Z,100207.42
2023-04-23T14:09:15.332Z,100203.52
2023-04-23T14:11:43.508Z,100202.92
2023-04-23T14:14:11.462Z,100203.55
2023-04-23T14:16:39.636Z,100200.75
2023-04-23T14:19:07.829Z,100201.56
2023-04-23T14:21:36.417Z,100202.02
2023-04-23T14:24:23.853Z,100198.77
2023-04-23T14:26:52.004Z,100200.77
2023-04-23T14:29:22.997Z,100199.38
2023-04-23T14:31:51.423Z,100198.61
2023-04-23T14:34:19.610Z,100198.34
2023-04-23T14:36:49.290Z,100194.30
2023-04-23T14:39:16.557Z,100193.86
2023-04-23T14:41:43.431Z,100195.60
2023-04-23T14:44:10.274Z,100192.19
2023-04-23T14:46:37.468Z,100190.02
2023-04-23T14:49:04.643Z,100187.38
2023-04-23T14:51:31.489Z,100190.95
2023-04-23T14:53:58.430Z,100189.85
2023-04-23T14:56:25.795Z,100192.73
2023-04-23T14:58:52.575Z,100187.91
2023-04-23T15:01:19.483Z,100186.98
2023-04-23T15:03:46.902Z,100189.10
2023-04-23T15:06:13.975Z,100187.04
2023-04-23T15:08:40.844Z,100187.62
2023-04-23T15:11:13.330Z,100183.13
2023-04-23T15:13:46.491Z,100186.31
2023-04-23T15:16:25.698Z,100185.13
2023-04-23T15:19:02.327Z,100183.31
2023-04-23T15:21:29.531Z,100186.23
2023-04-23T15:23:56.574Z,100188.98
2023-04-23T15:26:23.854Z,100183.93
2023-04-23T15:28:51.043Z,100182.52
2023-04-23T15:31:18.087Z,100182.98
2023-04-23T15:33:45.010Z,100184.33
2023-04-23T15:36:11.875Z,100182.59
2023-04-23T15:38:38.656Z,100180.41
2023-04-23T15:41:05.715Z,100182.52
2023-04-23T15:43:32.546Z,100183.64
2023-04-23T15:46:01.629Z,100183.02
2023-04-23T15:48:28.605Z,100181.94
2023-04-23T15:50:55.694Z,100182.95
2023-04-23T15:53:23.206Z,100181.05
2023-04-23T15:55:50.628Z,100179.42
2023-04-23T15:58:17.940Z,100179.56
2023-04-23T16:00:45.026Z,100174.48
2023-04-23T16:03:13.244Z,100179.11
2023-04-23T16:05:43.585Z,100183.32
2023-04-23T16:08:10.808Z,100183.04
2023-04-23T16:10:38.050Z,100184.42
2023-04-23T16:13:06.208Z,100184.52
2023-04-23T16:15:33.133Z,100185.38
2023-04-23T16:18:00.321Z,100184.06
2023-04-23T16:20:28.542Z,100183.14
2023-04-23T16:22:55.695Z,100178.95
2023-04-23T16:25:22.481Z,100181.36
2023-04-23T16:27:49.435Z,100181.61
2023-04-23T16:30:16.580Z,100178.45
2023-04-23T16:32:43.488Z,100182.81
2023-04-23T16:35:10.699Z,100183.92
2023-04-23T16:37:37.511Z,100183.64
2023-04-23T16:40:04.717Z,100185.11
2023-04-23T16:42:31.531Z,100183.29
2023-04-23T16:44:58.466Z,100182.34
2023-04-23T16:47:25.251Z,100184.42
2023-04-23T16:49:53.160Z,100184.39
2023-04-23T16:52:20.118Z,100187.93
2023-04-23T16:54:49.509Z,100188.15
2023-04-23T16:57:17.196Z,100187.95
2023-04-23T16:59:44.237Z,100187.10
2023-04-23T17:02:11.406Z,100190.59
2023-04-23T17:04:38.799Z,100191.80
2023-04-23T17:07:06.009Z,100193.35
2023-04-23T17:09:32.879Z,100196.89
2023-04-23T17:11:59.776Z,100199.67
2023-04-23T17:14:26.921Z,100199.81
2023-04-23T17:16:53.870Z,100199.78
2023-04-23T17:19:20.708Z,100200.14
2023-04-23T17:21:47.488Z,100198.06
2023-04-23T17:24:14.408Z,100201.66
2023-04-23T17:26:41.272Z,100202.86
2023-04-23T17:29:08.291Z,100204.71
2023-04-23T17:31:36.932Z,100204.34
2023-04-23T17:34:05.328Z,100210.85
2023-04-23T17:36:32.197Z,100208.73
2023-04-23T17:38:59.043Z,100207.57
2023-04-23T17:41:25.929Z,100208.89
2023-04-23T17:43:52.821Z,100210.86
2023-04-23T17:46:19.949Z,100216.63
2023-04-23T17:48:46.994Z,100215.95
2023-04-23T17:51:13.757Z,100215.83
2023-04-23T17:53:42.256Z,100220.02
2023-04-23T17:56:09.204Z,100224.37
2023-04-23T17:58:37.570Z,100220.79
2023-04-23T18:01:05.293Z,100218.55
2023-04-23T18:03:32.497Z,100216.98
2023-04-23T18:05:59.628Z,100221.20
2023-04-23T18:08:26.593Z,100219.34
2023-04-23T18:10:53.618Z,100222.69
2023-04-23T18:13:20.531Z,100221.10
2023-04-23T18:15:50.296Z,100219.80
2023-04-23T18:18:17.637Z,100222.85
2023-04-23T18:20:46.384Z,100224.34
2023-04-23T18:23:14.319Z,100219.73
2023-04-23T18:25:42.206Z,100217.77
2023-04-23T18:28:09.203Z,100217.88
2023-04-23T18:30:39.170Z,100217.30
2023-04-23T18:33:09.117Z,100220.04
2023-04-23T18:35:35.863Z,100217.54
2023-04-23T18:38:07.927Z,100219.77
2023-04-23T18:40:34.825Z,100219.71
2023-04-23T18:43:01.607Z,100219.30
2023-04-23T18:45:28.382Z,100219.28
2023-04-23T18:47:59.519Z,100221.52
2023-04-23T18:50:43.146Z,100220.92
2023-04-23T18:53:10.088Z,100225.27
2023-04-23T18:55:37.227Z,100224.45
2023-04-23T18:58:04.373Z,100224.19
2023-04-23T19:00:31.649Z,100226.30
2023-04-23T19:02:58.605Z,100228.33
2023-04-23T19:05:25.792Z,100228.55
2023-04-23T19:07:52.888Z,100226.22
2023-04-23T19:10:19.815Z,100223.70
2023-04-23T19:12:46.758Z,100226.67
2023-04-23T19:15:15.077Z,100225.55
2023-04-23T19:17:42.007Z,100220.98
2023-04-23T19:20:11.090Z,100224.25
2023-04-23T19:22:40.021Z,100225.92
2023-04-23T19:25:09.376Z,100229.13
2023-04-23T19:27:36.451Z,100224.30
2023-04-23T19:30:05.029Z,100223.39
2023-04-23T19:32:33.817Z,100224.34
2023-04-23T19:35:01.097Z,100230.16
2023-04-23T19:37:28.394Z,100227.26
2023-04-23T19:39:55.101Z,100231.08
2023-04-23T19:42:21.993Z,100224.46
2023-04-23T19:44:49.737Z,100224.91
2023-04-23T19:47:16.999Z,100226.40
2023-04-23T19:49:44.515Z,100224.98
2023-04-23T19:52:13.237Z,100223.93
2023-04-23T19:54:40.080Z,100222.88
2023-04-23T19:57:06.839Z,100224.35
2023-04-23T19:59:33.735Z,100220.04
2023-04-23T20:02:00.640Z,100218.08
2023-04-23T20:04:27.517Z,100213.30
2023-04-23T20:06:54.365Z,100211.52
2023-04-23T20:09:21.880Z,100215.98
2023-04-23T20:11:48.800Z,100214.89
2023-04-23T20:14:15.540Z,100217.42
2023-04-23T20:16:42.306Z,100215.13
2023-04-23T20:19:12.323Z,100213.73
2023-04-23T20:21:39.370Z,100214.40
2023-04-23T20:24:07.461Z,100212.66
2023-04-23T20:26:34.869Z,100213.83
2023-04-23T20:29:01.711Z,100213.65
2023-04-23T20:31:28.691Z,100216.84
2023-04-23T20:33:56.317Z,100218.95
2023-04-23T20:36:23.674Z,100220.23
2023-04-23T20:38:54.240Z,100223.62
2023-04-23T20:41:23.004Z,100226.86
2023-04-23T20:43:50.672Z,100225.70
2023-04-23T20:46:18.563Z,100228.54
2023-04-23T20:48:45.568Z,100230.48
2023-04-23T20:51:12.301Z,100228.20
2023-04-23T20:53:39.150Z,100225.52
2023-04-23T20:56:06.320Z,100224.11
2023-04-23T20:58:33.144Z,100225.55
2023-04-23T21:01:00.343Z,100225.48
2023-04-23T21:03:27.800Z,100225.36
2023-04-23T21:05:54.898Z,100226.71
2023-04-23T21:08:21.954Z,100227.59
2023-04-23T21:10:48.893Z,100229.73
2023-04-23T21:13:16.426Z,100230.23
2023-04-23T21:15:43.377Z,100233.30
2023-04-23T21:18:11.492Z,100234.13
2023-04-23T21:20:38.374Z,100236.08
2023-04-23T21:23:05.249Z,100234.34
2023-04-23T21:25:33.529Z,100239.77
2023-04-23T21:28:00.368Z,100238.54
2023-04-23T21:30:30.382Z,100235.78
2023-04-23T21:32:57.282Z,100237.73
2023-04-23T21:35:24.281Z,100235.34
2023-04-23T21:37:51.000Z,100235.19
2023-04-23T21:40:17.769Z,100236.31
2023-04-23T21:42:46.452Z,100234.48
2023-04-23T21:45:13.389Z,100236.54
2023-04-23T21:47:41.203Z,100236.77
2023-04-23T21:50:09.971Z,100236.20
2023-04-23T21:52:39.752Z,100235.06
2023-04-23T21:55:06.800Z,100233.52
2023-04-23T21:57:33.520Z,100232.30
2023-04-23T22:00:00.483Z,100233.19
2023-04-23T22:02:27.431Z,100235.35
2023-04-23T22:04:54.471Z,100230.27
2023-04-23T22:07:21.333Z,100235.50
2023-04-23T22:09:48.166Z,100235.17
2023-04-23T22:12:14.934Z,100230.66
2023-04-23T22:14:41.845Z,100229.30
2023-04-23T22:17:09.356Z,100227.69
2023-04-23T22:19:36.251Z,100229.77
2023-04-23T22:22:03.082Z,100231.94
2023-04-23T22:24:29.897Z,100228.23
2023-04-23T22:26:58.115Z,100225.12
2023-04-23T22:29:24.903Z,100221.05
2023-04-23T22:31:51.690Z,100214.59
2023-04-23T22:34:19.587Z,100208.82
2023-04-23T22:36:46.414Z,100206.64
2023-04-23T22:39:13.636Z,100207.45
2023-04-23T22:41:40.560Z,100205.29
2023-04-23T22:44:07.459Z,100203.42
2023-04-23T22:46:34.320Z,100201.29
2023-04-23T22:49:01.388Z,100199.66
2023-04-23T22:51:28.470Z,100198.19
2023-04-23T22:53:55.315Z,100197.09
2023-04-23T22:56:22.044Z,100196.58
2023-04-23T22:58:48.880Z,100193.02
2023-04-23T23:01:16.951Z,100195.31
2023-04-23T23:03:44.081Z,100188.89
2023-04-23T23:06:11.584Z,100190.70
2023-04-23T23:08:38.319Z,100189.23
2023-04-23T23:11:05.265Z,100190.27
2023-04-23T23:13:32.226Z,100188.55
2023-04-23T23:16:02.492Z,100186.24
2023-04-23T23:18:29.348Z,100183.05
2023-04-23T23:20:56.097Z,100181.14
2023-04-23T23:23:22.886Z,100180.63
2023-04-23T23:25:49.665Z,100178.67
2023-04-23T23:28:16.486Z,100176.48
2023-04-23T23:30:43.396Z,100176.24
2023-04-23T23:33:10.238Z,100175.04
2023-04-23T23:35:37.093Z,100171.30
2023-04-23T23:38:03.905Z,100172.72
2023-04-23T23:40:30.793Z,100169.52
2023-04-23T23:42:57.627Z,100170.48
2023-04-23T23:45:25.176Z,100167.24
2023-04-23T23:47:52.348Z,100164.96
2023-04-23T23:50:19.453Z,100162.25
2023-04-23T23:52:46.511Z,100159.36
2023-04-23T23:55:13.308Z,100160.12
2023-04-23T23:57:40.099Z,100159.06
